sensor_id;sensor_type;location;lat;lon;timestamp;pressure;altitude;pressure_sealevel;temperature;humidity
42297;BME280;28985;47.456;19.016;2022-10-16T00:01:23;100830.72;;;13.22;94.15
42297;BME280;28985;47.456;19.016;2022-10-16T00:03:51;100823.63;;;13.21;94.47
42297;BME280;28985;47.456;19.016;2022-10-16T00:06:20;100825.31;;;13.22;94.47
42297;BME280;28985;47.456;19.016;2022-10-16T00:08:47;100824.75;;;13.19;94.95
42297;BME280;28985;47.456;19.016;2022-10-16T00:13:45;100823.31;;;13.14;95.06
42297;BME280;28985;47.456;19.016;2022-10-16T00:16:14;100816.38;;;13.12;94.93
42297;BME280;28985;47.456;19.016;2022-10-16T00:18:42;100825.34;;;13.12;90.40
42297;BME280;28985;47.456;19.016;2022-10-16T00:21:26;100820.81;;;13.03;89.98
42297;BME280;28985;47.456;19.016;2022-10-16T00:24:03;100824.78;;;12.99;89.74
42297;BME280;28985;47.456;19.016;2022-10-16T00:26:32;100822.22;;;12.97;90.36
42297;BME280;28985;47.456;19.016;2022-10-16T00:28:59;100826.75;;;12.97;89.79
42297;BME280;28985;47.456;19.016;2022-10-16T00:31:26;100831.44;;;12.95;89.83
42297;BME280;28985;47.456;19.016;2022-10-16T00:33:53;100828.19;;;12.91;87.68
42297;BME280;28985;47.456;19.016;2022-10-16T00:36:22;100837.84;;;12.94;88.97
42297;BME280;28985;47.456;19.016;2022-10-16T00:38:51;100836.03;;;12.94;88.97
42297;BME280;28985;47.456;19.016;2022-10-16T00:41:23;100840.69;;;12.92;88.77
42297;BME280;28985;47.456;19.016;2022-10-16T00:44:01;100843.69;;;12.89;88.99
42297;BME280;28985;47.456;19.016;2022-10-16T00:46:41;100843.25;;;12.84;88.26
42297;BME280;28985;47.456;19.016;2022-10-16T00:49:13;100843.81;;;12.78;87.96
42297;BME280;28985;47.456;19.016;2022-10-16T00:51:52;100841.13;;;12.78;87.36
42297;BME280;28985;47.456;19.016;2022-10-16T00:54:25;100843.97;;;12.76;87.68
42297;BME280;28985;47.456;19.016;2022-10-16T00:56:53;100845.53;;;12.69;87.77
42297;BME280;28985;47.456;19.016;2022-10-16T00:59:25;100856.59;;;12.66;88.29
42297;BME280;28985;47.456;19.016;2022-10-16T01:01:53;100860.72;;;12.60;89.72
42297;BME280;28985;47.456;19.016;2022-10-16T01:04:21;100852.88;;;12.57;90.06
42297;BME280;28985;47.456;19.016;2022-10-16T01:07:19;100856.00;;;12.52;90.09
42297;BME280;28985;47.456;19.016;2022-10-16T01:20:54;100874.31;;;12.07;90.47
42297;BME280;28985;47.456;19.016;2022-10-16T01:26:24;100870.50;;;11.89;89.36
42297;BME280;28985;47.456;19.016;2022-10-16T01:29:15;100867.88;;;11.77;89.31
42297;BME280;28985;47.456;19.016;2022-10-16T01:31:48;100878.22;;;11.72;89.65
42297;BME280;28985;47.456;19.016;2022-10-16T01:34:39;100876.44;;;11.61;90.44
42297;BME280;28985;47.456;19.016;2022-10-16T01:37:12;100879.38;;;11.58;90.78
42297;BME280;28985;47.456;19.016;2022-10-16T01:39:42;100877.63;;;11.47;91.20
42297;BME280;28985;47.456;19.016;2022-10-16T01:42:20;100876.03;;;11.45;90.22
42297;BME280;28985;47.456;19.016;2022-10-16T01:44:48;100875.84;;;11.36;90.43
42297;BME280;28985;47.456;19.016;2022-10-16T01:47:16;100882.88;;;11.27;90.74
42297;BME280;28985;47.456;19.016;2022-10-16T01:49:44;100881.94;;;11.17;90.26
42297;BME280;28985;47.456;19.016;2022-10-16T01:52:16;100891.28;;;11.01;90.97
42297;BME280;28985;47.456;19.016;2022-10-16T01:54:46;100889.00;;;10.97;91.31
42297;BME280;28985;47.456;19.016;2022-10-16T01:57:15;100895.00;;;10.89;91.14
42297;BME280;28985;47.456;19.016;2022-10-16T01:59:46;100894.91;;;10.79;91.48
42297;BME280;28985;47.456;19.016;2022-10-16T02:02:15;100895.22;;;10.53;93.05
42297;BME280;28985;47.456;19.016;2022-10-16T02:04:48;100896.66;;;10.57;92.83
42297;BME280;28985;47.456;19.016;2022-10-16T02:07:16;100901.72;;;10.51;92.68
42297;BME280;28985;47.456;19.016;2022-10-16T02:09:43;100899.63;;;10.43;92.35
42297;BME280;28985;47.456;19.016;2022-10-16T02:12:25;100908.53;;;10.32;92.94
42297;BME280;28985;47.456;19.016;2022-10-16T02:14:53;100904.13;;;10.31;92.85
42297;BME280;28985;47.456;19.016;2022-10-16T02:17:20;100902.78;;;10.25;92.92
42297;BME280;28985;47.456;19.016;2022-10-16T02:19:48;100899.09;;;10.15;93.46
42297;BME280;28985;47.456;19.016;2022-10-16T02:22:24;100903.03;;;10.11;92.89
42297;BME280;28985;47.456;19.016;2022-10-16T02:32:48;100918.88;;;9.79;93.92
42297;BME280;28985;47.456;19.016;2022-10-16T02:35:17;100924.72;;;9.73;94.16
42297;BME280;28985;47.456;19.016;2022-10-16T02:37:46;100914.22;;;9.70;94.31
42297;BME280;28985;47.456;19.016;2022-10-16T02:40:13;100921.53;;;9.68;93.51
42297;BME280;28985;47.456;19.016;2022-10-16T02:42:41;100924.97;;;9.70;92.83
42297;BME280;28985;47.456;19.016;2022-10-16T02:45:10;100919.56;;;9.59;92.94
42297;BME280;28985;47.456;19.016;2022-10-16T02:47:37;100916.47;;;9.52;93.22
42297;BME280;28985;47.456;19.016;2022-10-16T02:50:04;100920.38;;;9.48;93.44
42297;BME280;28985;47.456;19.016;2022-10-16T02:52:31;100920.00;;;9.41;94.02
42297;BME280;28985;47.456;19.016;2022-10-16T02:54:58;100924.41;;;9.42;93.85
42297;BME280;28985;47.456;19.016;2022-10-16T02:57:24;100922.78;;;9.39;93.79
42297;BME280;28985;47.456;19.016;2022-10-16T02:59:51;100926.16;;;9.30;94.25
42297;BME280;28985;47.456;19.016;2022-10-16T03:02:18;100937.16;;;9.27;94.76
42297;BME280;28985;47.456;19.016;2022-10-16T03:04:44;100933.09;;;9.21;94.88
42297;BME280;28985;47.456;19.016;2022-10-16T03:07:11;100931.50;;;9.19;94.21
42297;BME280;28985;47.456;19.016;2022-10-16T03:09:37;100935.59;;;9.11;94.19
42297;BME280;28985;47.456;19.016;2022-10-16T03:12:04;100933.91;;;9.10;94.19
42297;BME280;28985;47.456;19.016;2022-10-16T03:14:31;100934.78;;;9.11;93.09
42297;BME280;28985;47.456;19.016;2022-10-16T03:16:57;100940.59;;;9.05;93.46
42297;BME280;28985;47.456;19.016;2022-10-16T03:19:24;100939.03;;;8.89;93.99
42297;BME280;28985;47.456;19.016;2022-10-16T03:21:50;100933.03;;;8.85;94.01
42297;BME280;28985;47.456;19.016;2022-10-16T03:24:17;100938.75;;;8.81;94.30
42297;BME280;28985;47.456;19.016;2022-10-16T03:26:43;100952.28;;;8.79;94.84
42297;BME280;28985;47.456;19.016;2022-10-16T03:29:10;100945.66;;;8.72;94.40
42297;BME280;28985;47.456;19.016;2022-10-16T03:31:36;100953.69;;;8.72;94.09
42297;BME280;28985;47.456;19.016;2022-10-16T03:34:03;100950.50;;;8.67;94.89
42297;BME280;28985;47.456;19.016;2022-10-16T03:36:29;100958.84;;;8.62;95.10
42297;BME280;28985;47.456;19.016;2022-10-16T03:38:56;100956.16;;;8.62;94.09
42297;BME280;28985;47.456;19.016;2022-10-16T03:41:23;100961.88;;;8.57;94.12
42297;BME280;28985;47.456;19.016;2022-10-16T03:43:49;100960.25;;;8.55;94.36
42297;BME280;28985;47.456;19.016;2022-10-16T03:46:16;100964.97;;;8.51;94.54
42297;BME280;28985;47.456;19.016;2022-10-16T03:48:42;100967.88;;;8.48;94.46
42297;BME280;28985;47.456;19.016;2022-10-16T03:51:09;100969.16;;;8.42;94.51
42297;BME280;28985;47.456;19.016;2022-10-16T03:53:35;100967.88;;;8.35;94.75
42297;BME280;28985;47.456;19.016;2022-10-16T03:56:02;100974.44;;;8.31;94.36
42297;BME280;28985;47.456;19.016;2022-10-16T03:58:28;100967.34;;;8.30;94.10
42297;BME280;28985;47.456;19.016;2022-10-16T04:00:55;100967.44;;;8.28;94.27
42297;BME280;28985;47.456;19.016;2022-10-16T04:03:21;100974.84;;;8.25;93.88
42297;BME280;28985;47.456;19.016;2022-10-16T04:05:49;100985.38;;;8.15;94.01
42297;BME280;28985;47.456;19.016;2022-10-16T04:08:16;100980.09;;;8.13;94.09
42297;BME280;28985;47.456;19.016;2022-10-16T04:10:43;100976.47;;;8.14;94.48
42297;BME280;28985;47.456;19.016;2022-10-16T04:13:10;100989.31;;;8.09;94.96
42297;BME280;28985;47.456;19.016;2022-10-16T04:15:37;100992.34;;;8.04;94.75
42297;BME280;28985;47.456;19.016;2022-10-16T04:18:05;100985.44;;;8.00;94.58
42297;BME280;28985;47.456;19.016;2022-10-16T04:20:32;100988.47;;;7.96;94.77
42297;BME280;28985;47.456;19.016;2022-10-16T04:22:59;100987.91;;;7.90;94.50
42297;BME280;28985;47.456;19.016;2022-10-16T04:25:25;100991.47;;;7.91;94.21
42297;BME280;28985;47.456;19.016;2022-10-16T04:27:53;100982.13;;;7.84;94.13
42297;BME280;28985;47.456;19.016;2022-10-16T04:30:20;100983.94;;;7.83;93.61
42297;BME280;28985;47.456;19.016;2022-10-16T04:32:51;100988.00;;;7.76;93.74
42297;BME280;28985;47.456;19.016;2022-10-16T04:35:19;100984.03;;;7.69;94.39
42297;BME280;28985;47.456;19.016;2022-10-16T04:37:46;100984.22;;;7.65;94.27
42297;BME280;28985;47.456;19.016;2022-10-16T04:40:13;100986.03;;;7.65;94.77
42297;BME280;28985;47.456;19.016;2022-10-16T04:42:40;100991.41;;;7.65;94.92
42297;BME280;28985;47.456;19.016;2022-10-16T04:45:07;100996.09;;;7.61;95.24
42297;BME280;28985;47.456;19.016;2022-10-16T04:47:40;100992.88;;;7.56;95.09
42297;BME280;28985;47.456;19.016;2022-10-16T04:50:07;100993.00;;;7.55;95.08
42297;BME280;28985;47.456;19.016;2022-10-16T04:52:34;100997.81;;;7.49;94.92
42297;BME280;28985;47.456;19.016;2022-10-16T04:55:06;101003.25;;;7.48;95.05
42297;BME280;28985;47.456;19.016;2022-10-16T04:57:32;101013.09;;;7.47;95.12
42297;BME280;28985;47.456;19.016;2022-10-16T04:59:59;101008.16;;;7.41;94.91
42297;BME280;28985;47.456;19.016;2022-10-16T05:02:26;101003.19;;;7.35;95.21
42297;BME280;28985;47.456;19.016;2022-10-16T05:04:53;101009.41;;;7.35;95.28
42297;BME280;28985;47.456;19.016;2022-10-16T05:07:19;101010.38;;;7.34;95.29
42297;BME280;28985;47.456;19.016;2022-10-16T05:09:46;101007.25;;;7.28;95.76
42297;BME280;28985;47.456;19.016;2022-10-16T05:12:12;101011.53;;;7.30;95.99
42297;BME280;28985;47.456;19.016;2022-10-16T05:14:39;101011.75;;;7.27;95.67
42297;BME280;28985;47.456;19.016;2022-10-16T05:17:05;101006.41;;;7.27;95.45
42297;BME280;28985;47.456;19.016;2022-10-16T05:19:32;101015.09;;;7.31;95.11
42297;BME280;28985;47.456;19.016;2022-10-16T05:21:58;101023.22;;;7.29;95.62
42297;BME280;28985;47.456;19.016;2022-10-16T05:24:25;101022.25;;;7.30;95.96
42297;BME280;28985;47.456;19.016;2022-10-16T05:26:52;101023.31;;;7.28;96.34
42297;BME280;28985;47.456;19.016;2022-10-16T05:29:19;101025.91;;;7.29;96.32
42297;BME280;28985;47.456;19.016;2022-10-16T05:31:46;101026.75;;;7.30;96.56
42297;BME280;28985;47.456;19.016;2022-10-16T05:34:12;101025.91;;;7.29;96.89
42297;BME280;28985;47.456;19.016;2022-10-16T05:36:39;101033.19;;;7.27;97.02
42297;BME280;28985;47.456;19.016;2022-10-16T05:39:05;101036.53;;;7.31;96.88
42297;BME280;28985;47.456;19.016;2022-10-16T05:41:32;101036.41;;;7.32;97.30
42297;BME280;28985;47.456;19.016;2022-10-16T05:43:58;101038.88;;;7.35;97.76
42297;BME280;28985;47.456;19.016;2022-10-16T05:46:25;101036.69;;;7.42;96.72
42297;BME280;28985;47.456;19.016;2022-10-16T05:48:52;101038.16;;;7.46;96.30
42297;BME280;28985;47.456;19.016;2022-10-16T05:51:19;101040.75;;;7.48;96.45
42297;BME280;28985;47.456;19.016;2022-10-16T05:53:46;101045.38;;;7.46;97.20
42297;BME280;28985;47.456;19.016;2022-10-16T05:56:12;101048.78;;;7.48;97.96
42297;BME280;28985;47.456;19.016;2022-10-16T05:58:39;101049.44;;;7.51;98.48
42297;BME280;28985;47.456;19.016;2022-10-16T06:01:16;101050.09;;;7.55;98.82
42297;BME280;28985;47.456;19.016;2022-10-16T06:03:43;101049.69;;;7.61;99.73
42297;BME280;28985;47.456;19.016;2022-10-16T06:06:12;101051.03;;;7.69;100.00
42297;BME280;28985;47.456;19.016;2022-10-16T06:08:40;101055.75;;;7.78;100.00
42297;BME280;28985;47.456;19.016;2022-10-16T06:11:10;101058.03;;;7.84;100.00
42297;BME280;28985;47.456;19.016;2022-10-16T06:13:37;101072.72;;;7.91;100.00
42297;BME280;28985;47.456;19.016;2022-10-16T06:16:05;101070.19;;;8.03;100.00
42297;BME280;28985;47.456;19.016;2022-10-16T06:18:32;101067.88;;;8.11;100.00
42297;BME280;28985;47.456;19.016;2022-10-16T06:20:58;101068.00;;;8.23;100.00
42297;BME280;28985;47.456;19.016;2022-10-16T06:23:28;101066.50;;;8.31;100.00
42297;BME280;28985;47.456;19.016;2022-10-16T06:26:04;101068.44;;;8.42;100.00
42297;BME280;28985;47.456;19.016;2022-10-16T06:28:30;101079.31;;;8.54;100.00
42297;BME280;28985;47.456;19.016;2022-10-16T06:31:01;101085.00;;;8.62;100.00
42297;BME280;28985;47.456;19.016;2022-10-16T06:33:34;101091.34;;;8.74;100.00
42297;BME280;28985;47.456;19.016;2022-10-16T06:38:32;101096.03;;;8.96;100.00
42297;BME280;28985;47.456;19.016;2022-10-16T06:40:58;101102.38;;;9.08;100.00
42297;BME280;28985;47.456;19.016;2022-10-16T06:43:26;101104.19;;;9.21;100.00
42297;BME280;28985;47.456;19.016;2022-10-16T06:45:53;101099.72;;;9.33;100.00
42297;BME280;28985;47.456;19.016;2022-10-16T06:48:20;101105.94;;;9.46;100.00
42297;BME280;28985;47.456;19.016;2022-10-16T06:51:08;101101.13;;;9.63;100.00
42297;BME280;28985;47.456;19.016;2022-10-16T06:53:37;101116.16;;;9.78;100.00
42297;BME280;28985;47.456;19.016;2022-10-16T06:56:25;101102.75;;;9.90;100.00
42297;BME280;28985;47.456;19.016;2022-10-16T06:58:53;101109.16;;;10.00;100.00
42297;BME280;28985;47.456;19.016;2022-10-16T07:01:22;101116.41;;;10.11;100.00
42297;BME280;28985;47.456;19.016;2022-10-16T07:03:50;101120.84;;;10.24;100.00
42297;BME280;28985;47.456;19.016;2022-10-16T07:06:19;101126.28;;;10.35;99.16
42297;BME280;28985;47.456;19.016;2022-10-16T07:08:47;101124.63;;;10.45;96.83
42297;BME280;28985;47.456;19.016;2022-10-16T07:11:16;101130.06;;;10.57;96.05
42297;BME280;28985;47.456;19.016;2022-10-16T07:13:44;101126.41;;;10.69;94.00
42297;BME280;28985;47.456;19.016;2022-10-16T07:16:20;101129.94;;;10.81;93.73
42297;BME280;28985;47.456;19.016;2022-10-16T07:18:48;101140.75;;;10.93;93.08
42297;BME280;28985;47.456;19.016;2022-10-16T07:21:19;101139.03;;;11.03;91.41
42297;BME280;28985;47.456;19.016;2022-10-16T07:23:53;101139.78;;;11.17;90.39
42297;BME280;28985;47.456;19.016;2022-10-16T07:26:20;101150.81;;;11.25;86.94
42297;BME280;28985;47.456;19.016;2022-10-16T07:28:48;101147.13;;;11.37;86.23
42297;BME280;28985;47.456;19.016;2022-10-16T07:31:15;101152.25;;;11.52;87.83
42297;BME280;28985;47.456;19.016;2022-10-16T07:33:44;101156.03;;;11.61;85.65
42297;BME280;28985;47.456;19.016;2022-10-16T07:36:12;101145.38;;;11.71;84.02
42297;BME280;28985;47.456;19.016;2022-10-16T07:38:42;101143.09;;;11.87;84.71
42297;BME280;28985;47.456;19.016;2022-10-16T07:41:11;101150.94;;;12.02;85.27
42297;BME280;28985;47.456;19.016;2022-10-16T07:43:38;101155.31;;;12.14;82.06
42297;BME280;28985;47.456;19.016;2022-10-16T07:46:05;101149.00;;;12.25;82.43
42297;BME280;28985;47.456;19.016;2022-10-16T07:48:33;101139.88;;;12.38;82.33
42297;BME280;28985;47.456;19.016;2022-10-16T07:51:01;101145.97;;;12.51;82.39
42297;BME280;28985;47.456;19.016;2022-10-16T07:53:28;101148.72;;;12.61;80.21
42297;BME280;28985;47.456;19.016;2022-10-16T07:56:02;101160.06;;;12.76;79.47
42297;BME280;28985;47.456;19.016;2022-10-16T07:58:29;101173.50;;;12.87;79.37
42297;BME280;28985;47.456;19.016;2022-10-16T08:00:57;101174.53;;;12.96;76.57
42297;BME280;28985;47.456;19.016;2022-10-16T08:03:24;101173.34;;;13.10;77.59
42297;BME280;28985;47.456;19.016;2022-10-16T08:05:51;101169.69;;;13.21;76.17
42297;BME280;28985;47.456;19.016;2022-10-16T08:08:18;101175.31;;;13.39;76.98
42297;BME280;28985;47.456;19.016;2022-10-16T08:10:45;101167.25;;;13.49;75.43
42297;BME280;28985;47.456;19.016;2022-10-16T08:13:12;101175.16;;;13.62;75.14
42297;BME280;28985;47.456;19.016;2022-10-16T08:15:42;101174.59;;;13.78;74.29
42297;BME280;28985;47.456;19.016;2022-10-16T08:18:10;101171.50;;;13.93;73.18
42297;BME280;28985;47.456;19.016;2022-10-16T08:20:38;101177.66;;;14.05;72.71
42297;BME280;28985;47.456;19.016;2022-10-16T08:23:06;101180.22;;;14.16;69.86
42297;BME280;28985;47.456;19.016;2022-10-16T08:25:36;101186.78;;;14.14;65.48
42297;BME280;28985;47.456;19.016;2022-10-16T08:28:05;101189.34;;;14.25;68.20
42297;BME280;28985;47.456;19.016;2022-10-16T08:30:34;101193.63;;;14.38;70.07
42297;BME280;28985;47.456;19.016;2022-10-16T08:33:02;101199.16;;;14.56;70.77
42297;BME280;28985;47.456;19.016;2022-10-16T08:35:28;101196.03;;;14.70;70.30
42297;BME280;28985;47.456;19.016;2022-10-16T08:37:55;101202.59;;;14.87;69.83
42297;BME280;28985;47.456;19.016;2022-10-16T08:40:26;101204.03;;;14.92;66.54
42297;BME280;28985;47.456;19.016;2022-10-16T08:48:59;101202.72;;;15.43;68.40
42297;BME280;28985;47.456;19.016;2022-10-16T08:51:29;101201.94;;;15.61;67.29
42297;BME280;28985;47.456;19.016;2022-10-16T08:56:57;101199.19;;;15.99;65.72
42297;BME280;28985;47.456;19.016;2022-10-16T08:59:26;101205.78;;;16.15;62.82
42297;BME280;28985;47.456;19.016;2022-10-16T09:01:53;101205.56;;;16.26;62.44
42297;BME280;28985;47.456;19.016;2022-10-16T09:10:07;101205.09;;;16.67;59.28
42297;BME280;28985;47.456;19.016;2022-10-16T09:13:01;101210.03;;;16.72;56.54
42297;BME280;28985;47.456;19.016;2022-10-16T09:21:21;101209.44;;;17.31;57.58
42297;BME280;28985;47.456;19.016;2022-10-16T09:23:50;101202.63;;;17.62;58.75
42297;BME280;28985;47.456;19.016;2022-10-16T09:26:18;101206.97;;;17.89;58.26
42297;BME280;28985;47.456;19.016;2022-10-16T09:28:46;101203.31;;;18.07;58.43
42297;BME280;28985;47.456;19.016;2022-10-16T09:31:18;101205.88;;;18.25;56.70
42297;BME280;28985;47.456;19.016;2022-10-16T09:33:50;101206.94;;;18.41;56.24
42297;BME280;28985;47.456;19.016;2022-10-16T09:36:19;101202.66;;;18.63;55.46
42297;BME280;28985;47.456;19.016;2022-10-16T09:38:46;101212.56;;;18.89;56.39
42297;BME280;28985;47.456;19.016;2022-10-16T09:49:00;101213.59;;;19.93;49.44
42297;BME280;28985;47.456;19.016;2022-10-16T09:51:32;101210.03;;;19.92;48.43
42297;BME280;28985;47.456;19.016;2022-10-16T09:54:01;101209.94;;;20.09;47.15
42297;BME280;28985;47.456;19.016;2022-10-16T09:56:30;101207.66;;;20.44;47.96
42297;BME280;28985;47.456;19.016;2022-10-16T09:59:19;101210.75;;;20.88;47.58
42297;BME280;28985;47.456;19.016;2022-10-16T10:01:49;101215.88;;;21.21;48.35
42297;BME280;28985;47.456;19.016;2022-10-16T10:04:19;101217.97;;;21.34;45.83
42297;BME280;28985;47.456;19.016;2022-10-16T10:06:48;101222.22;;;21.67;46.21
42297;BME280;28985;47.456;19.016;2022-10-16T10:11:57;101201.38;;;22.24;41.86
42297;BME280;28985;47.456;19.016;2022-10-16T10:14:25;101203.38;;;22.74;42.57
42297;BME280;28985;47.456;19.016;2022-10-16T10:17:07;101199.59;;;23.32;43.27
42297;BME280;28985;47.456;19.016;2022-10-16T10:19:42;101197.63;;;23.62;40.19
42297;BME280;28985;47.456;19.016;2022-10-16T10:44:11;101190.63;;;27.67;33.96
42297;BME280;28985;47.456;19.016;2022-10-16T10:46:56;101177.91;;;28.08;31.13
42297;BME280;28985;47.456;19.016;2022-10-16T11:06:26;101180.28;;;29.67;26.87
42297;BME280;28985;47.456;19.016;2022-10-16T11:09:00;101171.69;;;30.26;27.29
42297;BME280;28985;47.456;19.016;2022-10-16T11:11:40;101188.03;;;30.57;26.08
42297;BME280;28985;47.456;19.016;2022-10-16T11:19:37;101165.41;;;30.83;26.24
42297;BME280;28985;47.456;19.016;2022-10-16T11:30:04;101170.13;;;31.21;25.05
42297;BME280;28985;47.456;19.016;2022-10-16T11:35:21;101165.09;;;31.01;26.18
42297;BME280;28985;47.456;19.016;2022-10-16T11:37:53;101153.06;;;30.95;25.68
42297;BME280;28985;47.456;19.016;2022-10-16T11:40:29;101152.09;;;31.74;25.01
42297;BME280;28985;47.456;19.016;2022-10-16T11:43:32;101152.44;;;32.38;25.18
42297;BME280;28985;47.456;19.016;2022-10-16T11:46:08;101153.41;;;32.16;23.86
42297;BME280;28985;47.456;19.016;2022-10-16T11:48:43;101158.53;;;32.30;23.88
42297;BME280;28985;47.456;19.016;2022-10-16T11:51:22;101157.44;;;32.36;23.17
42297;BME280;28985;47.456;19.016;2022-10-16T11:54:43;101164.03;;;32.24;22.64
42297;BME280;28985;47.456;19.016;2022-10-16T11:56:55;101162.41;;;32.28;24.04
42297;BME280;28985;47.456;19.016;2022-10-16T12:04:39;101154.06;;;31.73;24.79
42297;BME280;28985;47.456;19.016;2022-10-16T12:07:34;101155.31;;;32.43;23.29
42297;BME280;28985;47.456;19.016;2022-10-16T12:10:24;101147.81;;;33.40;22.72
42297;BME280;28985;47.456;19.016;2022-10-16T12:12:53;101148.22;;;33.91;21.81
42297;BME280;28985;47.456;19.016;2022-10-16T12:15:28;101149.06;;;33.86;21.38
42297;BME280;28985;47.456;19.016;2022-10-16T12:18:23;101135.22;;;33.27;21.95
42297;BME280;28985;47.456;19.016;2022-10-16T12:20:57;101145.28;;;32.85;23.08
42297;BME280;28985;47.456;19.016;2022-10-16T12:23:47;101127.06;;;33.15;22.36
42297;BME280;28985;47.456;19.016;2022-10-16T12:26:23;101131.66;;;32.89;22.18
42297;BME280;28985;47.456;19.016;2022-10-16T12:28:50;101141.25;;;32.60;24.65
42297;BME280;28985;47.456;19.016;2022-10-16T12:31:18;101135.56;;;32.88;23.75
42297;BME280;28985;47.456;19.016;2022-10-16T12:33:59;101138.50;;;33.19;23.63
42297;BME280;28985;47.456;19.016;2022-10-16T12:36:30;101129.34;;;33.29;23.59
42297;BME280;28985;47.456;19.016;2022-10-16T12:38:58;101139.69;;;32.80;23.32
42297;BME280;28985;47.456;19.016;2022-10-16T12:41:32;101127.00;;;33.05;24.17
42297;BME280;28985;47.456;19.016;2022-10-16T12:43:59;101128.13;;;33.83;21.86
42297;BME280;28985;47.456;19.016;2022-10-16T12:51:41;101131.94;;;32.92;22.67
42297;BME280;28985;47.456;19.016;2022-10-16T12:54:20;101129.09;;;32.82;22.32
42297;BME280;28985;47.456;19.016;2022-10-16T12:59:43;101138.81;;;32.79;22.15
42297;BME280;28985;47.456;19.016;2022-10-16T13:07:39;101141.50;;;31.71;23.63
42297;BME280;28985;47.456;19.016;2022-10-16T13:13:11;101146.47;;;32.51;23.54
42297;BME280;28985;47.456;19.016;2022-10-16T13:29:09;101148.75;;;32.60;23.46
42297;BME280;28985;47.456;19.016;2022-10-16T13:31:38;101160.53;;;32.72;22.23
42297;BME280;28985;47.456;19.016;2022-10-16T13:34:06;101163.50;;;32.55;22.27
42297;BME280;28985;47.456;19.016;2022-10-16T13:36:49;101156.59;;;32.35;23.47
42297;BME280;28985;47.456;19.016;2022-10-16T13:39:25;101161.47;;;32.18;22.62
42297;BME280;28985;47.456;19.016;2022-10-16T13:42:05;101160.28;;;31.14;23.74
42297;BME280;28985;47.456;19.016;2022-10-16T13:44:54;101150.84;;;31.37;23.48
42297;BME280;28985;47.456;19.016;2022-10-16T13:47:23;101154.63;;;31.75;22.68
42297;BME280;28985;47.456;19.016;2022-10-16T13:50:05;101153.75;;;31.47;23.30
42297;BME280;28985;47.456;19.016;2022-10-16T13:52:33;101153.25;;;30.89;24.56
42297;BME280;28985;47.456;19.016;2022-10-16T13:54:59;101147.81;;;31.39;23.66
42297;BME280;28985;47.456;19.016;2022-10-16T13:57:28;101158.44;;;31.25;24.80
42297;BME280;28985;47.456;19.016;2022-10-16T13:59:54;101171.31;;;31.08;24.29
42297;BME280;28985;47.456;19.016;2022-10-16T14:02:34;101166.16;;;30.78;24.29
42297;BME280;28985;47.456;19.016;2022-10-16T14:05:03;101160.88;;;30.76;23.79
42297;BME280;28985;47.456;19.016;2022-10-16T14:07:32;101164.03;;;30.68;23.63
42297;BME280;28985;47.456;19.016;2022-10-16T14:10:03;101166.56;;;29.89;25.96
42297;BME280;28985;47.456;19.016;2022-10-16T14:12:31;101159.25;;;29.71;26.33
42297;BME280;28985;47.456;19.016;2022-10-16T14:14:59;101161.09;;;30.23;24.55
42297;BME280;28985;47.456;19.016;2022-10-16T14:17:31;101163.00;;;30.40;24.98
42297;BME280;28985;47.456;19.016;2022-10-16T14:20:00;101159.50;;;30.45;24.09
42297;BME280;28985;47.456;19.016;2022-10-16T14:22:39;101166.47;;;30.30;25.49
42297;BME280;28985;47.456;19.016;2022-10-16T14:25:23;101162.53;;;30.43;25.29
42297;BME280;28985;47.456;19.016;2022-10-16T14:28:13;101156.59;;;29.76;25.83
42297;BME280;28985;47.456;19.016;2022-10-16T14:31:22;101161.59;;;29.91;24.87
42297;BME280;28985;47.456;19.016;2022-10-16T14:33:50;101162.66;;;29.73;25.70
42297;BME280;28985;47.456;19.016;2022-10-16T14:36:17;101158.81;;;29.62;26.10
42297;BME280;28985;47.456;19.016;2022-10-16T14:39:06;101158.09;;;29.43;25.88
42297;BME280;28985;47.456;19.016;2022-10-16T14:41:45;101151.81;;;29.06;27.57
42297;BME280;28985;47.456;19.016;2022-10-16T14:44:12;101159.16;;;29.13;26.05
42297;BME280;28985;47.456;19.016;2022-10-16T14:46:41;101166.50;;;28.59;26.97
42297;BME280;28985;47.456;19.016;2022-10-16T14:51:36;101174.09;;;27.23;27.95
42297;BME280;28985;47.456;19.016;2022-10-16T14:54:03;101169.63;;;26.77;29.27
42297;BME280;28985;47.456;19.016;2022-10-16T14:56:42;101169.72;;;26.45;30.16
42297;BME280;28985;47.456;19.016;2022-10-16T14:59:22;101166.59;;;26.35;29.45
42297;BME280;28985;47.456;19.016;2022-10-16T15:01:51;101172.34;;;25.94;30.47
42297;BME280;28985;47.456;19.016;2022-10-16T15:04:18;101168.41;;;25.77;30.55
42297;BME280;28985;47.456;19.016;2022-10-16T15:06:44;101166.19;;;25.53;31.43
42297;BME280;28985;47.456;19.016;2022-10-16T15:09:11;101160.41;;;24.82;34.56
42297;BME280;28985;47.456;19.016;2022-10-16T15:11:38;101162.50;;;24.80;34.10
42297;BME280;28985;47.456;19.016;2022-10-16T15:14:05;101164.63;;;24.58;33.80
42297;BME280;28985;47.456;19.016;2022-10-16T15:16:31;101177.13;;;24.33;34.18
42297;BME280;28985;47.456;19.016;2022-10-16T15:18:58;101192.69;;;24.06;36.11
42297;BME280;28985;47.456;19.016;2022-10-16T15:21:27;101193.16;;;23.60;37.40
42297;BME280;28985;47.456;19.016;2022-10-16T15:23:54;101204.13;;;23.54;36.61
42297;BME280;28985;47.456;19.016;2022-10-16T15:26:24;101205.19;;;23.17;40.92
42297;BME280;28985;47.456;19.016;2022-10-16T15:28:51;101200.13;;;22.92;43.57
42297;BME280;28985;47.456;19.016;2022-10-16T15:31:17;101199.13;;;23.29;41.92